BAW151 EGKK-EGPF
Flight info
| Callsign | BAW151 |
|---|---|
| Flight time | 1h 14m |
| Altitude | 38000 |
| Route | LAM L10 BPK UN601 RIBEL DCT ASLIB |
| Aircraft | A35K/H-V/N |
Departure
| Time | 2026-05-07 13:11 |
|---|---|
| Airport | London Gatwick Airport (EGKK) |
Arrival
| Time | 2026-05-07 14:26 |
|---|---|
| Airport | Glasgow Airport (EGPF) |
| Time | Latitude | Longitude | Altitude | Speed | Heading |
|---|---|---|---|---|---|
| 2026-05-07 12:37 | 51.15452 | -0.17171 | 221 ft | 0 kts | 36° |
| 2026-05-07 12:58 | 51.15449 | -0.17174 | 210 ft | 0 kts | 36° |
| 2026-05-07 12:59 | 51.15439 | -0.17184 | 214 ft | 3 kts | 15° |
| 2026-05-07 12:59 | 51.15418 | -0.17187 | 213 ft | 3 kts | 338° |
| 2026-05-07 13:00 | 51.15406 | -0.17176 | 210 ft | 0 kts | 316° |
| 2026-05-07 13:01 | 51.15406 | -0.17177 | 210 ft | 1 kts | 316° |
| 2026-05-07 13:01 | 51.15411 | -0.17184 | 210 ft | 1 kts | 316° |
| 2026-05-07 13:01 | 51.15420 | -0.17197 | 220 ft | 0 kts | 316° |
| 2026-05-07 13:02 | 51.15419 | -0.17195 | 220 ft | 1 kts | 316° |
| 2026-05-07 13:02 | 51.15411 | -0.17183 | 210 ft | 2 kts | 308° |
| 2026-05-07 13:03 | 51.15403 | -0.17163 | 220 ft | 3 kts | 284° |
| 2026-05-07 13:03 | 51.15400 | -0.17151 | 221 ft | 0 kts | 266° |
| 2026-05-07 13:05 | 51.15399 | -0.17161 | 219 ft | 3 kts | 263° |
| 2026-05-07 13:05 | 51.15391 | -0.17206 | 217 ft | 6 kts | 250° |
| 2026-05-07 13:06 | 51.15371 | -0.17287 | 221 ft | 10 kts | 248° |
| 2026-05-07 13:06 | 51.15325 | -0.17380 | 219 ft | 12 kts | 235° |
| 2026-05-07 13:06 | 51.15293 | -0.17519 | 216 ft | 15 kts | 254° |
| 2026-05-07 13:06 | 51.15268 | -0.17691 | 220 ft | 17 kts | 257° |
| 2026-05-07 13:07 | 51.15241 | -0.17894 | 221 ft | 20 kts | 258° |
| 2026-05-07 13:07 | 51.15208 | -0.18132 | 217 ft | 24 kts | 257° |
| 2026-05-07 13:07 | 51.15169 | -0.18404 | 222 ft | 26 kts | 259° |
| 2026-05-07 13:07 | 51.15135 | -0.18702 | 213 ft | 27 kts | 257° |
| 2026-05-07 13:08 | 51.15093 | -0.19011 | 220 ft | 29 kts | 256° |
| 2026-05-07 13:08 | 51.15050 | -0.19316 | 216 ft | 25 kts | 259° |
| 2026-05-07 13:08 | 51.15014 | -0.19593 | 219 ft | 27 kts | 258° |
| 2026-05-07 13:08 | 51.14973 | -0.19899 | 210 ft | 29 kts | 256° |
| 2026-05-07 13:09 | 51.14925 | -0.20201 | 214 ft | 25 kts | 256° |
| 2026-05-07 13:09 | 51.14882 | -0.20492 | 215 ft | 28 kts | 258° |
| 2026-05-07 13:09 | 51.14846 | -0.20810 | 217 ft | 30 kts | 258° |
| 2026-05-07 13:09 | 51.14806 | -0.21102 | 214 ft | 25 kts | 255° |
| 2026-05-07 13:10 | 51.14755 | -0.21357 | 218 ft | 23 kts | 233° |
| 2026-05-07 13:10 | 51.14631 | -0.21341 | 219 ft | 17 kts | 158° |
| 2026-05-07 13:10 | 51.14538 | -0.21241 | 219 ft | 17 kts | 127° |
| 2026-05-07 13:10 | 51.14529 | -0.21066 | 222 ft | 16 kts | 79° |
| 2026-05-07 13:11 | 51.14555 | -0.20873 | 220 ft | 23 kts | 78° |
| 2026-05-07 13:11 | 51.14644 | -0.20216 | 216 ft | 100 kts | 78° |
| 2026-05-07 13:11 | 51.14842 | -0.18746 | 222 ft | 167 kts | 72° |
| 2026-05-07 13:11 | 51.15093 | -0.16848 | 885 ft | 177 kts | 79° |
| 2026-05-07 13:12 | 51.15337 | -0.14897 | 1742 ft | 183 kts | 79° |
| 2026-05-07 13:12 | 51.15603 | -0.12856 | 2281 ft | 196 kts | 78° |
| 2026-05-07 13:12 | 51.15945 | -0.10643 | 2773 ft | 215 kts | 76° |
| 2026-05-07 13:12 | 51.16346 | -0.08205 | 3219 ft | 238 kts | 76° |
| 2026-05-07 13:13 | 51.16805 | -0.05559 | 3715 ft | 256 kts | 71° |
| 2026-05-07 13:13 | 51.17664 | -0.03033 | 4440 ft | 261 kts | 50° |
| 2026-05-07 13:13 | 51.18941 | -0.00959 | 5272 ft | 267 kts | 42° |
| 2026-05-07 13:13 | 51.20321 | 0.01171 | 5708 ft | 281 kts | 47° |
| 2026-05-07 13:14 | 51.21539 | 0.03550 | 6608 ft | 279 kts | 52° |
| 2026-05-07 13:14 | 51.22719 | 0.05983 | 7563 ft | 277 kts | 53° |
| 2026-05-07 13:14 | 51.23894 | 0.08449 | 8345 ft | 281 kts | 53° |
| 2026-05-07 13:14 | 51.24998 | 0.11041 | 9149 ft | 283 kts | 64° |
| 2026-05-07 13:15 | 51.25556 | 0.14043 | 9971 ft | 282 kts | 80° |
| 2026-05-07 13:15 | 51.25891 | 0.17156 | 10638 ft | 287 kts | 82° |
| 2026-05-07 13:15 | 51.26213 | 0.20340 | 11317 ft | 292 kts | 81° |
| 2026-05-07 13:15 | 51.26563 | 0.23553 | 12037 ft | 295 kts | 81° |
| 2026-05-07 13:16 | 51.26923 | 0.26766 | 12768 ft | 299 kts | 81° |
| 2026-05-07 13:16 | 51.27352 | 0.30024 | 13485 ft | 303 kts | 75° |
| 2026-05-07 13:16 | 51.28234 | 0.33102 | 14137 ft | 308 kts | 56° |
| 2026-05-07 13:16 | 51.29760 | 0.35512 | 14743 ft | 314 kts | 32° |
| 2026-05-07 13:17 | 51.31823 | 0.36640 | 15365 ft | 317 kts | 3° |
| 2026-05-07 13:17 | 51.33986 | 0.36106 | 16165 ft | 317 kts | 336° |
| 2026-05-07 13:17 | 51.35975 | 0.34546 | 16840 ft | 320 kts | 331° |
| 2026-05-07 13:17 | 51.37966 | 0.32950 | 17545 ft | 323 kts | 333° |
| 2026-05-07 13:18 | 51.40018 | 0.31439 | 18239 ft | 326 kts | 334° |
| 2026-05-07 13:18 | 51.42108 | 0.29991 | 18844 ft | 329 kts | 335° |
| 2026-05-07 13:18 | 51.44221 | 0.28562 | 19425 ft | 333 kts | 335° |
| 2026-05-07 13:18 | 51.46371 | 0.27129 | 20032 ft | 335 kts | 335° |
| 2026-05-07 13:19 | 51.48546 | 0.25694 | 20630 ft | 338 kts | 336° |
| 2026-05-07 13:19 | 51.50729 | 0.24267 | 21222 ft | 341 kts | 336° |
| 2026-05-07 13:19 | 51.52937 | 0.22823 | 21812 ft | 344 kts | 336° |
| 2026-05-07 13:19 | 51.55166 | 0.21362 | 22385 ft | 346 kts | 335° |
| 2026-05-07 13:20 | 51.57409 | 0.19893 | 22972 ft | 349 kts | 335° |
| 2026-05-07 13:20 | 51.59665 | 0.18414 | 23502 ft | 353 kts | 336° |
| 2026-05-07 13:20 | 51.61906 | 0.16872 | 23971 ft | 355 kts | 332° |
| 2026-05-07 13:20 | 51.64042 | 0.14766 | 24427 ft | 355 kts | 320° |
| 2026-05-07 13:21 | 51.65824 | 0.11992 | 24752 ft | 360 kts | 307° |
| 2026-05-07 13:21 | 51.67332 | 0.08787 | 24969 ft | 369 kts | 303° |
| 2026-05-07 13:21 | 51.68780 | 0.05299 | 25168 ft | 379 kts | 301° |
| 2026-05-07 13:21 | 51.70206 | 0.01654 | 25395 ft | 388 kts | 300° |
| 2026-05-07 13:22 | 51.71645 | -0.02085 | 25589 ft | 398 kts | 300° |
| 2026-05-07 13:22 | 51.73211 | -0.05824 | 25796 ft | 408 kts | 305° |
| 2026-05-07 13:22 | 51.75079 | -0.09347 | 25971 ft | 418 kts | 313° |
| 2026-05-07 13:22 | 51.77273 | -0.12516 | 26186 ft | 428 kts | 321° |
| 2026-05-07 13:23 | 51.79754 | -0.15271 | 26374 ft | 438 kts | 326° |
| 2026-05-07 13:23 | 51.82374 | -0.17884 | 26563 ft | 447 kts | 328° |
| 2026-05-07 13:23 | 51.85045 | -0.20428 | 26769 ft | 454 kts | 329° |
| 2026-05-07 13:23 | 51.87790 | -0.22997 | 27147 ft | 458 kts | 329° |
| 2026-05-07 13:24 | 51.90561 | -0.25590 | 27573 ft | 461 kts | 329° |
| 2026-05-07 13:24 | 51.93343 | -0.28209 | 28007 ft | 464 kts | 329° |
| 2026-05-07 13:24 | 51.96135 | -0.30861 | 28452 ft | 467 kts | 329° |
| 2026-05-07 13:24 | 51.98943 | -0.33545 | 28904 ft | 470 kts | 329° |
| 2026-05-07 13:25 | 52.01774 | -0.36265 | 29340 ft | 474 kts | 329° |
| 2026-05-07 13:25 | 52.04619 | -0.39006 | 29812 ft | 477 kts | 329° |
| 2026-05-07 13:25 | 52.07494 | -0.41783 | 30143 ft | 483 kts | 329° |
| 2026-05-07 13:25 | 52.10390 | -0.44579 | 30494 ft | 486 kts | 329° |
| 2026-05-07 13:26 | 52.13313 | -0.47401 | 30911 ft | 488 kts | 329° |
| 2026-05-07 13:26 | 52.16244 | -0.50239 | 31301 ft | 491 kts | 329° |
| 2026-05-07 13:26 | 52.19183 | -0.53089 | 31669 ft | 493 kts | 329° |
| 2026-05-07 13:26 | 52.22140 | -0.55962 | 32025 ft | 496 kts | 329° |
| 2026-05-07 13:27 | 52.25110 | -0.58846 | 32358 ft | 498 kts | 329° |
| 2026-05-07 13:27 | 52.28096 | -0.61757 | 32808 ft | 498 kts | 329° |
| 2026-05-07 13:27 | 52.31042 | -0.64640 | 33187 ft | 500 kts | 330° |
| 2026-05-07 13:27 | 52.34026 | -0.67565 | 33530 ft | 501 kts | 330° |
| 2026-05-07 13:28 | 52.37006 | -0.70488 | 34027 ft | 500 kts | 330° |
| 2026-05-07 13:28 | 52.39992 | -0.73413 | 34460 ft | 498 kts | 329° |
| 2026-05-07 13:28 | 52.42962 | -0.76331 | 34896 ft | 497 kts | 329° |
| 2026-05-07 13:28 | 52.45916 | -0.79238 | 35306 ft | 496 kts | 329° |
| 2026-05-07 13:29 | 52.48883 | -0.82162 | 35675 ft | 496 kts | 329° |
| 2026-05-07 13:29 | 52.51830 | -0.85071 | 36039 ft | 495 kts | 329° |
| 2026-05-07 13:29 | 52.54786 | -0.87993 | 36373 ft | 496 kts | 329° |
| 2026-05-07 13:29 | 52.57712 | -0.90889 | 36696 ft | 497 kts | 328° |
| 2026-05-07 13:30 | 52.60645 | -0.93797 | 36719 ft | 486 kts | 328° |
| 2026-05-07 13:30 | 52.63534 | -0.96662 | 36241 ft | 483 kts | 329° |
| 2026-05-07 13:30 | 52.66431 | -0.99543 | 36072 ft | 492 kts | 329° |
| 2026-05-07 13:30 | 52.69377 | -1.02481 | 36036 ft | 498 kts | 329° |
| 2026-05-07 13:31 | 52.75324 | -1.08424 | 36048 ft | 500 kts | 329° |
| 2026-05-07 13:31 | 52.81282 | -1.14392 | 36048 ft | 500 kts | 329° |
| 2026-05-07 13:32 | 52.87225 | -1.20374 | 36048 ft | 500 kts | 329° |
| 2026-05-07 13:32 | 52.93133 | -1.26337 | 36048 ft | 500 kts | 329° |
| 2026-05-07 13:33 | 52.99118 | -1.32400 | 36048 ft | 500 kts | 328° |
| 2026-05-07 13:33 | 53.05020 | -1.38391 | 36049 ft | 500 kts | 328° |
| 2026-05-07 13:34 | 53.13911 | -1.47446 | 36047 ft | 500 kts | 328° |
| 2026-05-07 13:35 | 53.19842 | -1.53512 | 36051 ft | 500 kts | 328° |
| 2026-05-07 13:35 | 53.25781 | -1.59610 | 36045 ft | 501 kts | 328° |
| 2026-05-07 13:36 | 53.31684 | -1.65684 | 36039 ft | 502 kts | 328° |
| 2026-05-07 13:36 | 53.37601 | -1.71804 | 36038 ft | 501 kts | 328° |
| 2026-05-07 13:37 | 53.43533 | -1.77968 | 36054 ft | 502 kts | 328° |
| 2026-05-07 13:37 | 53.49471 | -1.84148 | 36057 ft | 502 kts | 328° |
| 2026-05-07 13:38 | 53.55373 | -1.90308 | 36052 ft | 501 kts | 328° |
| 2026-05-07 13:38 | 53.61303 | -1.96518 | 36052 ft | 502 kts | 328° |
| 2026-05-07 13:39 | 53.67240 | -2.02759 | 36054 ft | 501 kts | 328° |
| 2026-05-07 13:39 | 53.73178 | -2.08957 | 36054 ft | 501 kts | 330° |
| 2026-05-07 13:40 | 53.79534 | -2.13829 | 36057 ft | 502 kts | 337° |
| 2026-05-07 13:40 | 53.85973 | -2.18274 | 36055 ft | 502 kts | 338° |
| 2026-05-07 13:41 | 53.92474 | -2.22684 | 36056 ft | 502 kts | 338° |
| 2026-05-07 13:41 | 53.98964 | -2.27126 | 36063 ft | 503 kts | 337° |
| 2026-05-07 13:42 | 54.05234 | -2.32335 | 36057 ft | 501 kts | 331° |
| 2026-05-07 13:42 | 54.11371 | -2.38025 | 36059 ft | 502 kts | 330° |
| 2026-05-07 13:43 | 54.17478 | -2.43792 | 36055 ft | 501 kts | 330° |
| 2026-05-07 13:43 | 54.23546 | -2.49532 | 36059 ft | 501 kts | 330° |
| 2026-05-07 13:44 | 54.29648 | -2.55310 | 36061 ft | 500 kts | 330° |
| 2026-05-07 13:44 | 54.34683 | -2.60087 | 35996 ft | 498 kts | 329° |
| 2026-05-07 13:44 | 54.37736 | -2.62991 | 35775 ft | 500 kts | 330° |
| 2026-05-07 13:45 | 54.40778 | -2.65890 | 35538 ft | 501 kts | 330° |
| 2026-05-07 13:45 | 54.43828 | -2.68802 | 35302 ft | 502 kts | 330° |
| 2026-05-07 13:45 | 54.46880 | -2.71719 | 35059 ft | 503 kts | 330° |
| 2026-05-07 13:45 | 54.49944 | -2.74651 | 34475 ft | 501 kts | 330° |
| 2026-05-07 13:46 | 54.52953 | -2.77537 | 33638 ft | 502 kts | 330° |
| 2026-05-07 13:46 | 54.56005 | -2.80469 | 32753 ft | 502 kts | 329° |
| 2026-05-07 13:46 | 54.59045 | -2.83393 | 31898 ft | 501 kts | 329° |
| 2026-05-07 13:46 | 54.62085 | -2.86323 | 31014 ft | 501 kts | 329° |
| 2026-05-07 13:47 | 54.65128 | -2.89260 | 30114 ft | 501 kts | 329° |
| 2026-05-07 13:47 | 54.68189 | -2.92223 | 29101 ft | 502 kts | 329° |
| 2026-05-07 13:47 | 54.71214 | -2.95154 | 28445 ft | 495 kts | 329° |
| 2026-05-07 13:47 | 54.74194 | -2.98043 | 27828 ft | 488 kts | 329° |
| 2026-05-07 13:48 | 54.77144 | -3.00910 | 27199 ft | 483 kts | 328° |
| 2026-05-07 13:48 | 54.80051 | -3.03742 | 26558 ft | 477 kts | 328° |
| 2026-05-07 13:48 | 54.82937 | -3.06557 | 25926 ft | 472 kts | 328° |
| 2026-05-07 13:48 | 54.85788 | -3.09195 | 25336 ft | 467 kts | 331° |
| 2026-05-07 13:49 | 54.88679 | -3.11744 | 24724 ft | 463 kts | 331° |
| 2026-05-07 13:49 | 54.91538 | -3.14270 | 24120 ft | 459 kts | 330° |
| 2026-05-07 13:49 | 54.94365 | -3.16785 | 23483 ft | 455 kts | 330° |
| 2026-05-07 13:49 | 54.97161 | -3.19285 | 22819 ft | 449 kts | 330° |
| 2026-05-07 13:50 | 54.99930 | -3.21771 | 22225 ft | 443 kts | 330° |
| 2026-05-07 13:50 | 55.02649 | -3.24219 | 21601 ft | 437 kts | 330° |
| 2026-05-07 13:50 | 55.05330 | -3.26638 | 21015 ft | 431 kts | 330° |
| 2026-05-07 13:50 | 55.07991 | -3.29043 | 20430 ft | 426 kts | 330° |
| 2026-05-07 13:51 | 55.10604 | -3.31410 | 19821 ft | 422 kts | 330° |
| 2026-05-07 13:51 | 55.13202 | -3.33767 | 19214 ft | 417 kts | 330° |
| 2026-05-07 13:51 | 55.15729 | -3.36063 | 18641 ft | 414 kts | 330° |
| 2026-05-07 13:51 | 55.18277 | -3.38382 | 18011 ft | 410 kts | 330° |
| 2026-05-07 13:52 | 55.20776 | -3.40658 | 17388 ft | 406 kts | 330° |
| 2026-05-07 13:52 | 55.23278 | -3.42938 | 16784 ft | 402 kts | 329° |
| 2026-05-07 13:52 | 55.25761 | -3.45206 | 16183 ft | 399 kts | 329° |
| 2026-05-07 13:52 | 55.28196 | -3.47438 | 15621 ft | 394 kts | 329° |
| 2026-05-07 13:53 | 55.30544 | -3.49836 | 15075 ft | 387 kts | 325° |
| 2026-05-07 13:53 | 55.32863 | -3.52335 | 14023 ft | 395 kts | 324° |
| 2026-05-07 13:53 | 55.35191 | -3.54885 | 12957 ft | 401 kts | 324° |
| 2026-05-07 13:53 | 55.37533 | -3.57461 | 11881 ft | 390 kts | 324° |
| 2026-05-07 13:54 | 55.39795 | -3.59954 | 10957 ft | 372 kts | 324° |
| 2026-05-07 13:54 | 55.41886 | -3.62258 | 10790 ft | 337 kts | 323° |
| 2026-05-07 13:54 | 55.43785 | -3.64352 | 10649 ft | 307 kts | 323° |
| 2026-05-07 13:54 | 55.45514 | -3.66271 | 10503 ft | 282 kts | 322° |
| 2026-05-07 13:55 | 55.47123 | -3.68065 | 10402 ft | 270 kts | 322° |
| 2026-05-07 13:55 | 55.48717 | -3.69866 | 10261 ft | 273 kts | 322° |
| 2026-05-07 13:55 | 55.50319 | -3.71668 | 10157 ft | 273 kts | 322° |
| 2026-05-07 13:55 | 55.51914 | -3.73459 | 9958 ft | 272 kts | 323° |
| 2026-05-07 13:56 | 55.53535 | -3.75280 | 9754 ft | 284 kts | 322° |
| 2026-05-07 13:56 | 55.55225 | -3.77184 | 9658 ft | 287 kts | 323° |
| 2026-05-07 13:56 | 55.56916 | -3.79078 | 9142 ft | 288 kts | 323° |
| 2026-05-07 13:56 | 55.58607 | -3.80975 | 8708 ft | 288 kts | 323° |
| 2026-05-07 13:57 | 55.60298 | -3.82874 | 8388 ft | 287 kts | 323° |
| 2026-05-07 13:57 | 55.61981 | -3.84766 | 8083 ft | 285 kts | 323° |
| 2026-05-07 13:57 | 55.63620 | -3.86607 | 7940 ft | 273 kts | 323° |
| 2026-05-07 13:57 | 55.65178 | -3.88355 | 7775 ft | 265 kts | 322° |
| 2026-05-07 13:58 | 55.66728 | -3.90106 | 7524 ft | 263 kts | 322° |
| 2026-05-07 13:58 | 55.68259 | -3.91841 | 7243 ft | 262 kts | 322° |
| 2026-05-07 13:58 | 55.69818 | -3.93557 | 6928 ft | 265 kts | 326° |
| 2026-05-07 13:58 | 55.71499 | -3.94915 | 6758 ft | 267 kts | 334° |
| 2026-05-07 13:59 | 55.73233 | -3.96127 | 6573 ft | 267 kts | 334° |
| 2026-05-07 13:59 | 55.74940 | -3.97307 | 6407 ft | 265 kts | 334° |
| 2026-05-07 13:59 | 55.76622 | -3.98472 | 6267 ft | 254 kts | 334° |
| 2026-05-07 13:59 | 55.78240 | -3.99598 | 6183 ft | 245 kts | 333° |
| 2026-05-07 14:00 | 55.79797 | -4.00683 | 6089 ft | 235 kts | 333° |
| 2026-05-07 14:00 | 55.81295 | -4.01733 | 5914 ft | 228 kts | 333° |
| 2026-05-07 14:00 | 55.82759 | -4.02765 | 5673 ft | 225 kts | 332° |
| 2026-05-07 14:00 | 55.84210 | -4.03791 | 5425 ft | 223 kts | 332° |
| 2026-05-07 14:01 | 55.85647 | -4.04807 | 5247 ft | 222 kts | 332° |
| 2026-05-07 14:01 | 55.87083 | -4.05823 | 5099 ft | 223 kts | 332° |
| 2026-05-07 14:01 | 55.88522 | -4.06841 | 4930 ft | 222 kts | 332° |
| 2026-05-07 14:01 | 55.89959 | -4.07856 | 4766 ft | 221 kts | 332° |
| 2026-05-07 14:02 | 55.91389 | -4.08868 | 4476 ft | 221 kts | 332° |
| 2026-05-07 14:02 | 55.92817 | -4.09878 | 4219 ft | 219 kts | 332° |
| 2026-05-07 14:02 | 55.94227 | -4.10877 | 3935 ft | 217 kts | 333° |
| 2026-05-07 14:02 | 55.95611 | -4.11859 | 3658 ft | 217 kts | 332° |
| 2026-05-07 14:03 | 55.97008 | -4.12850 | 3416 ft | 215 kts | 332° |
| 2026-05-07 14:03 | 55.98394 | -4.13843 | 3185 ft | 214 kts | 331° |
| 2026-05-07 14:03 | 55.99564 | -4.15313 | 2923 ft | 199 kts | 296° |
| 2026-05-07 14:03 | 55.99842 | -4.17532 | 2909 ft | 178 kts | 253° |
| 2026-05-07 14:04 | 55.99456 | -4.19628 | 2879 ft | 178 kts | 242° |
| 2026-05-07 14:04 | 55.98789 | -4.21490 | 2910 ft | 178 kts | 227° |
| 2026-05-07 14:04 | 55.97982 | -4.23060 | 2872 ft | 166 kts | 225° |
| 2026-05-07 14:04 | 55.97232 | -4.24512 | 2836 ft | 155 kts | 225° |
| 2026-05-07 14:05 | 55.96499 | -4.25891 | 2604 ft | 151 kts | 224° |
| 2026-05-07 14:05 | 55.95787 | -4.27226 | 2394 ft | 146 kts | 224° |
| 2026-05-07 14:05 | 55.95119 | -4.28481 | 2169 ft | 144 kts | 224° |
| 2026-05-07 14:05 | 55.94437 | -4.29761 | 1947 ft | 139 kts | 224° |
| 2026-05-07 14:06 | 55.93772 | -4.31005 | 1743 ft | 149 kts | 224° |
| 2026-05-07 14:06 | 55.92974 | -4.32462 | 1419 ft | 172 kts | 224° |
| 2026-05-07 14:06 | 55.92161 | -4.33947 | 1213 ft | 162 kts | 222° |
| 2026-05-07 14:06 | 55.91400 | -4.35465 | 1498 ft | 176 kts | 228° |
| 2026-05-07 14:07 | 55.90501 | -4.37264 | 2121 ft | 207 kts | 225° |
| 2026-05-07 14:07 | 55.89444 | -4.39206 | 2713 ft | 227 kts | 224° |
| 2026-05-07 14:07 | 55.88323 | -4.41256 | 2964 ft | 233 kts | 225° |
| 2026-05-07 14:07 | 55.87354 | -4.43541 | 3000 ft | 237 kts | 243° |
| 2026-05-07 14:08 | 55.87081 | -4.46448 | 2990 ft | 246 kts | 270° |
| 2026-05-07 14:08 | 55.87673 | -4.49355 | 2997 ft | 258 kts | 298° |
| 2026-05-07 14:08 | 55.89017 | -4.51536 | 2997 ft | 270 kts | 326° |
| 2026-05-07 14:08 | 55.90847 | -4.52457 | 2989 ft | 280 kts | 354° |
| 2026-05-07 14:09 | 55.92766 | -4.51854 | 2985 ft | 283 kts | 22° |
| 2026-05-07 14:09 | 55.94388 | -4.49913 | 2999 ft | 283 kts | 43° |
| 2026-05-07 14:09 | 55.95795 | -4.47433 | 2990 ft | 283 kts | 51° |
| 2026-05-07 14:09 | 55.96895 | -4.44544 | 2985 ft | 280 kts | 65° |
| 2026-05-07 14:10 | 55.97581 | -4.41303 | 2991 ft | 278 kts | 76° |
| 2026-05-07 14:10 | 55.98310 | -4.38079 | 2994 ft | 280 kts | 69° |
| 2026-05-07 14:10 | 55.99030 | -4.34853 | 2984 ft | 279 kts | 78° |
| 2026-05-07 14:10 | 55.99194 | -4.31462 | 2853 ft | 271 kts | 103° |
| 2026-05-07 14:11 | 55.98851 | -4.28190 | 2632 ft | 265 kts | 106° |
| 2026-05-07 14:11 | 55.98078 | -4.25326 | 2585 ft | 252 kts | 139° |
| 2026-05-07 14:11 | 55.96632 | -4.23883 | 2589 ft | 232 kts | 175° |
| 2026-05-07 14:11 | 55.95162 | -4.24298 | 2596 ft | 211 kts | 210° |
| 2026-05-07 14:12 | 55.94231 | -4.26204 | 2379 ft | 203 kts | 244° |
| 2026-05-07 14:12 | 55.93686 | -4.28459 | 2049 ft | 193 kts | 243° |
| 2026-05-07 14:12 | 55.93182 | -4.30569 | 1781 ft | 175 kts | 243° |
| 2026-05-07 14:12 | 55.92735 | -4.32449 | 1509 ft | 155 kts | 242° |
| 2026-05-07 14:13 | 55.92162 | -4.33938 | 1319 ft | 138 kts | 224° |
| 2026-05-07 14:13 | 55.91521 | -4.35111 | 1119 ft | 126 kts | 221° |
| 2026-05-07 14:13 | 55.90942 | -4.36222 | 958 ft | 120 kts | 223° |
| 2026-05-07 14:13 | 55.90392 | -4.37310 | 814 ft | 119 kts | 222° |
| 2026-05-07 14:14 | 55.89829 | -4.38415 | 540 ft | 119 kts | 224° |
| 2026-05-07 14:14 | 55.89273 | -4.39471 | 370 ft | 119 kts | 224° |
| 2026-05-07 14:14 | 55.88703 | -4.40510 | 214 ft | 117 kts | 223° |
| 2026-05-07 14:14 | 55.88147 | -4.41528 | 155 ft | 120 kts | 225° |
| 2026-05-07 14:15 | 55.87585 | -4.42602 | 40 ft | 113 kts | 226° |
| 2026-05-07 14:15 | 55.87089 | -4.43524 | 84 ft | 89 kts | 225° |
| 2026-05-07 14:15 | 55.86674 | -4.44311 | 336 ft | 96 kts | 224° |
| 2026-05-07 14:15 | 55.86288 | -4.45399 | 674 ft | 115 kts | 255° |
| 2026-05-07 14:16 | 55.86644 | -4.46592 | 1283 ft | 125 kts | 316° |
| 2026-05-07 14:16 | 55.87649 | -4.46957 | 1462 ft | 165 kts | 4° |
| 2026-05-07 14:16 | 55.88808 | -4.46224 | 1740 ft | 193 kts | 30° |
| 2026-05-07 14:16 | 55.89955 | -4.44732 | 2215 ft | 216 kts | 41° |
| 2026-05-07 14:17 | 55.90975 | -4.42585 | 2696 ft | 242 kts | 56° |
| 2026-05-07 14:17 | 55.92071 | -4.39914 | 2962 ft | 281 kts | 56° |
| 2026-05-07 14:17 | 55.93250 | -4.37009 | 2999 ft | 301 kts | 56° |
| 2026-05-07 14:17 | 55.94528 | -4.33855 | 3025 ft | 320 kts | 56° |
| 2026-05-07 14:18 | 55.95847 | -4.30591 | 3356 ft | 332 kts | 56° |
| 2026-05-07 14:18 | 55.97240 | -4.27138 | 3485 ft | 354 kts | 56° |
| 2026-05-07 14:18 | 55.98680 | -4.23560 | 3494 ft | 348 kts | 56° |
| 2026-05-07 14:18 | 56.00224 | -4.20416 | 3488 ft | 325 kts | 37° |
| 2026-05-07 14:19 | 56.02199 | -4.18832 | 3489 ft | 302 kts | 11° |
| 2026-05-07 14:19 | 56.04197 | -4.18147 | 3483 ft | 286 kts | 3° |
| 2026-05-07 14:19 | 56.06145 | -4.18326 | 3491 ft | 276 kts | 340° |
| 2026-05-07 14:19 | 56.07689 | -4.20112 | 3538 ft | 262 kts | 303° |
| 2026-05-07 14:20 | 56.08326 | -4.22952 | 3033 ft | 247 kts | 267° |
| 2026-05-07 14:20 | 56.07856 | -4.25697 | 3110 ft | 224 kts | 228° |
| 2026-05-07 14:20 | 56.06574 | -4.27376 | 3665 ft | 233 kts | 208° |
| 2026-05-07 14:20 | 56.05020 | -4.28235 | 3838 ft | 232 kts | 193° |
| 2026-05-07 14:21 | 56.03457 | -4.28568 | 3586 ft | 225 kts | 182° |
| 2026-05-07 14:21 | 56.01917 | -4.27779 | 3148 ft | 240 kts | 155° |
| 2026-05-07 14:21 | 56.00482 | -4.26153 | 3004 ft | 248 kts | 150° |
| 2026-05-07 14:21 | 55.99006 | -4.24643 | 2911 ft | 238 kts | 168° |
| 2026-05-07 14:22 | 55.97468 | -4.24768 | 2824 ft | 214 kts | 204° |
| 2026-05-07 14:22 | 55.96271 | -4.26159 | 2573 ft | 199 kts | 224° |
| 2026-05-07 14:22 | 55.95392 | -4.27964 | 2308 ft | 186 kts | 227° |
| 2026-05-07 14:22 | 55.94549 | -4.29606 | 2035 ft | 171 kts | 222° |
| 2026-05-07 14:23 | 55.93750 | -4.31030 | 1773 ft | 154 kts | 225° |
| 2026-05-07 14:23 | 55.93060 | -4.32349 | 1553 ft | 138 kts | 225° |
| 2026-05-07 14:23 | 55.92440 | -4.33513 | 1381 ft | 125 kts | 224° |
| 2026-05-07 14:23 | 55.91862 | -4.34593 | 1204 ft | 118 kts | 221° |
| 2026-05-07 14:24 | 55.91294 | -4.35662 | 1051 ft | 117 kts | 222° |
| 2026-05-07 14:24 | 55.90725 | -4.36707 | 889 ft | 121 kts | 223° |
| 2026-05-07 14:24 | 55.90137 | -4.37810 | 697 ft | 124 kts | 224° |
| 2026-05-07 14:24 | 55.89565 | -4.38903 | 541 ft | 118 kts | 223° |
| 2026-05-07 14:25 | 55.88990 | -4.39959 | 357 ft | 120 kts | 224° |
| 2026-05-07 14:25 | 55.88414 | -4.41027 | 217 ft | 120 kts | 225° |
| 2026-05-07 14:25 | 55.87844 | -4.42110 | 97 ft | 119 kts | 225° |
| 2026-05-07 14:25 | 55.87291 | -4.43139 | 37 ft | 109 kts | 225° |
| 2026-05-07 14:26 | 55.86893 | -4.43889 | 37 ft | 44 kts | 227° |
| 2026-05-07 14:26 | 55.86822 | -4.44024 | 35 ft | 20 kts | 227° |
| 2026-05-07 14:26 | 55.86690 | -4.44262 | 39 ft | 10 kts | 206° |
| 2026-05-07 14:26 | 55.86657 | -4.44258 | 39 ft | 13 kts | 158° |
| 2026-05-07 14:27 | 55.86613 | -4.44038 | 35 ft | 10 kts | 89° |
| 2026-05-07 14:27 | 55.86620 | -4.43994 | 35 ft | 6 kts | 72° |
| 2026-05-07 14:27 | 55.86655 | -4.43899 | 35 ft | 14 kts | 50° |
| 2026-05-07 14:27 | 55.86726 | -4.43736 | 34 ft | 15 kts | 64° |
| 2026-05-07 14:28 | 55.86729 | -4.43715 | 34 ft | 1 kts | 73° |
| 2026-05-07 14:28 | 55.86727 | -4.43698 | 35 ft | 1 kts | 109° |
| 2026-05-07 14:28 | 55.86708 | -4.43654 | 35 ft | 12 kts | 118° |
| 2026-05-07 14:28 | 55.86674 | -4.43631 | 34 ft | 2 kts | 221° |
| 2026-05-07 14:29 | 55.86670 | -4.43640 | 34 ft | 0 kts | 229° |
| 2026-05-07 14:29 | 55.86669 | -4.43647 | 34 ft | 1 kts | 247° |
| 2026-05-07 14:29 | 55.86666 | -4.43679 | 34 ft | 0 kts | 255° |